Time;durP1;ratioP1;P1;durP2;ratioP2;P2;SDS_P1;SDS_P2;PMS_P1;PMS_P2;Temp;Humidity;BMP_temperature;BMP_pressure;BME280_temperature;BME280_humidity;BME280_pressure;Samples;Min_cycle;Max_cycle;Signal;HPM_P1;HPM_P2
2022/09/27 00:01:56;;;;;;;15.40;10.70;;;;;;;14.24;99.58;99945.91;107065;1253;71139;-80
2022/09/27 00:04:26;;;;;;;12.80;10.00;;;;;;;14.23;100.00;99938.48;106916;1252;71762;-80
2022/09/27 00:06:55;;;;;;;14.10;9.80;;;;;;;14.26;100.00;99935.55;107114;1252;61750;-81
2022/09/27 00:09:24;;;;;;;16.20;10.90;;;;;;;14.29;100.00;99929.63;106975;1254;60849;-79
2022/09/27 00:11:52;;;;;;;13.00;9.80;;;;;;;14.31;100.00;99927.19;106888;1253;72961;-79
2022/09/27 00:14:21;;;;;;;14.70;10.80;;;;;;;14.31;100.00;99921.73;106881;1252;70599;-78
2022/09/27 00:16:50;;;;;;;18.20;10.50;;;;;;;14.33;100.00;99918.52;106877;1253;68843;-77
2022/09/27 00:19:22;;;;;;;13.80;10.70;;;;;;;14.35;100.00;99913.45;106966;1252;72388;-77
2022/09/27 00:21:51;;;;;;;13.40;10.30;;;;;;;14.38;100.00;99913.85;107008;1252;61419;-78
2022/09/27 00:24:22;;;;;;;18.20;10.60;;;;;;;14.36;100.00;99913.00;106927;1252;60566;-77
2022/09/27 00:26:50;;;;;;;13.00;9.90;;;;;;;14.37;100.00;99911.33;106997;1252;74189;-77
2022/09/27 00:29:20;;;;;;;15.10;10.60;;;;;;;14.38;99.96;99909.13;107018;1254;71784;-76
2022/09/27 00:31:48;;;;;;;18.10;11.30;;;;;;;14.42;100.00;99903.87;106870;1255;70452;-78
2022/09/27 00:34:21;;;;;;;20.70;10.60;;;;;;;14.42;100.00;99898.02;106896;1254;72455;-78
2022/09/27 00:36:51;;;;;;;14.70;10.50;;;;;;;14.37;99.87;99889.84;106854;1254;63100;-75
2022/09/27 00:39:20;;;;;;;13.10;9.10;;;;;;;14.39;100.00;99895.03;106759;1254;59373;-76
2022/09/27 00:41:49;;;;;;;15.10;10.80;;;;;;;14.38;99.94;99895.89;106780;1253;74918;-78
2022/09/27 00:44:38;;;;;;;14.40;10.00;;;;;;;14.41;100.00;99891.54;106982;1252;71897;-75
2022/09/27 00:47:23;;;;;;;12.70;9.10;;;;;;;14.44;100.00;99887.91;106952;1252;68062;-77
2022/09/27 00:50:09;;;;;;;13.60;9.70;;;;;;;14.42;100.00;99877.75;107064;1252;73019;-76
2022/09/27 00:52:47;;;;;;;15.60;9.50;;;;;;;14.42;100.00;99870.89;107031;1254;61821;-77
2022/09/27 00:55:28;;;;;;;11.70;8.80;;;;;;;14.40;100.00;99866.04;106943;1254;59750;-79
2022/09/27 00:57:57;;;;;;;10.10;7.70;;;;;;;14.35;100.00;99857.38;107026;1252;72976;-75
2022/09/27 01:00:26;;;;;;;13.40;8.50;;;;;;;14.36;100.00;99862.55;106888;1252;72439;-77
2022/09/27 01:02:56;;;;;;;13.00;9.00;;;;;;;14.35;100.00;99858.48;106758;1254;71051;-77
2022/09/27 01:05:28;;;;;;;12.20;9.50;;;;;;;14.40;100.00;99850.83;106747;1254;73429;-76
2022/09/27 01:07:59;;;;;;;12.60;8.10;;;;;;;14.44;100.00;99853.68;107093;1254;61061;-77
2022/09/27 01:10:39;;;;;;;11.60;8.50;;;;;;;14.45;100.00;99852.33;106778;1255;59859;-79
2022/09/27 01:13:27;;;;;;;10.50;8.30;;;;;;;14.47;100.00;99855.67;106703;1254;71947;-77
2022/09/27 01:16:22;;;;;;;11.50;8.30;;;;;;;14.49;100.00;99860.25;106973;1255;70439;-77
2022/09/27 01:19:19;;;;;;;10.10;8.10;;;;;;;14.48;100.00;99864.67;106833;1255;68006;-77
2022/09/27 01:22:13;;;;;;;10.80;7.50;;;;;;;14.50;100.00;99861.86;106930;1254;71296;-77
2022/09/27 01:24:53;;;;;;;;;;;;;;;14.55;100.00;99856.30;106941;1254;63070;-76
2022/09/27 01:28:03;;;;;;;10.30;8.10;;;;;;;14.57;100.00;99855.73;106896;1254;61179;-79
2022/09/27 01:30:45;;;;;;;10.50;8.00;;;;;;;14.60;100.00;99847.36;106950;1255;74215;-78
2022/09/27 01:33:41;;;;;;;11.70;8.10;;;;;;;14.61;100.00;99841.67;106942;1254;69899;-80
2022/09/27 01:36:16;;;;;;;11.90;9.00;;;;;;;14.63;100.00;99828.84;107033;1254;70977;-77
2022/09/27 01:39:21;;;;;;;9.50;7.40;;;;;;;14.64;100.00;99823.30;106905;1253;74740;-76
2022/09/27 01:43:09;;;;;;;12.60;7.60;;;;;;;14.64;100.00;99819.95;106881;1254;64168;-77
2022/09/27 01:45:53;;;;;;;10.70;7.80;;;;;;;14.68;100.00;99814.98;107037;1254;59657;-81
2022/09/27 01:50:08;;;;;;;11.70;7.80;;;;;;;14.66;100.00;99817.68;106983;1254;75513;-80
2022/09/27 01:52:52;;;;;;;10.50;8.00;;;;;;;14.67;100.00;99818.27;106847;1254;71517;-80
2022/09/27 01:55:28;;;;;;;9.30;7.40;;;;;;;14.71;100.00;99813.99;106961;1254;67322;-81
2022/09/27 01:59:06;;;;;;;10.20;7.10;;;;;;;14.69;100.00;99813.85;106762;1254;73784;-78
2022/09/27 02:01:38;;;;;;;11.70;7.40;;;;;;;14.69;100.00;99817.23;106981;1254;60898;-77
2022/09/27 02:04:13;;;;;;;11.30;7.50;;;;;;;14.67;100.00;99820.54;106845;1255;59880;-77
2022/09/27 02:07:14;;;;;;;10.60;7.20;;;;;;;14.67;100.00;99815.61;106978;1254;74101;-79
2022/09/27 02:10:09;;;;;;;11.40;7.50;;;;;;;14.67;100.00;99811.20;107020;1255;70237;-76
2022/09/27 02:13:24;;;;;;;11.10;7.90;;;;;;;14.69;100.00;99807.90;106984;1255;68771;-78
2022/09/27 02:16:22;;;;;;;10.40;7.20;;;;;;;14.72;100.00;99807.52;106991;1254;74159;-79
2022/09/27 02:19:17;;;;;;;10.80;8.00;;;;;;;14.73;100.00;99808.37;106760;1254;62795;-76
2022/09/27 02:22:16;;;;;;;11.20;7.90;;;;;;;14.77;100.00;99804.81;106819;1254;59515;-75
2022/09/27 02:25:08;;;;;;;10.50;8.10;;;;;;;14.80;100.00;99804.08;106799;1254;74532;-75
2022/09/27 02:28:18;;;;;;;11.60;8.80;;;;;;;14.83;100.00;99798.06;106908;1254;71474;-75
2022/09/27 02:30:47;;;;;;;14.30;10.30;;;;;;;14.83;100.00;99794.51;106605;1255;70329;-75
2022/09/27 02:33:36;;;;;;;13.70;10.10;;;;;;;14.79;100.00;99795.09;106721;1255;72896;-73
2022/09/27 02:36:05;;;;;;;13.00;9.40;;;;;;;14.75;100.00;99793.56;106653;1255;62902;-75
2022/09/27 02:38:35;;;;;;;12.70;9.30;;;;;;;14.75;100.00;99794.68;106871;1254;60859;-75
2022/09/27 02:41:15;;;;;;;12.20;9.70;;;;;;;14.75;100.00;99788.21;106916;1254;73117;-76
2022/09/27 02:43:51;;;;;;;11.90;8.30;;;;;;;14.77;100.00;99784.10;106471;1255;71345;-72
2022/09/27 02:46:24;;;;;;;13.60;9.60;;;;;;;14.79;100.00;99782.62;106788;1254;69684;-76
2022/09/27 02:49:27;;;;;;;12.50;9.20;;;;;;;14.85;100.00;99779.19;106756;1255;75408;-75
2022/09/27 02:52:41;;;;;;;11.20;7.60;;;;;;;14.86;100.00;99771.58;106637;1255;61415;-72
2022/09/27 02:55:41;;;;;;;11.20;7.60;;;;;;;14.87;100.00;99766.25;106782;1254;59700;-73
2022/09/27 02:59:23;;;;;;;8.80;6.50;;;;;;;14.86;100.00;99761.94;106469;1258;72254;-78
2022/09/27 03:02:32;;;;;;;11.00;7.70;;;;;;;14.84;100.00;99760.69;106631;1257;73405;-79
2022/09/27 03:06:10;;;;;;;7.90;6.90;;;;;;;14.87;100.00;99752.19;107116;1254;70253;-80
2022/09/27 03:08:39;;;;;;;9.50;7.10;;;;;;;14.86;100.00;99752.29;106877;1254;72650;-80
2022/09/27 03:11:08;;;;;;;9.90;6.90;;;;;;;14.86;100.00;99756.20;107117;1254;62305;-80
2022/09/27 03:13:37;;;;;;;10.20;6.80;;;;;;;14.80;100.00;99752.54;107004;1254;59008;-80
2022/09/27 03:16:27;;;;;;;10.30;7.10;;;;;;;14.80;100.00;99743.45;107036;1252;74002;-79
2022/09/27 03:19:16;;;;;;;9.70;7.00;;;;;;;14.80;100.00;99737.64;107000;1254;71750;-82
2022/09/27 03:22:32;;;;;;;9.20;6.90;;;;;;;14.78;100.00;99734.71;106817;1255;69375;-78
2022/09/27 03:25:01;;;;;;;10.60;7.30;;;;;;;14.70;100.00;99729.51;106865;1252;73582;-76
2022/09/27 03:27:31;;;;;;;11.80;8.40;;;;;;;14.72;100.00;99734.11;106812;1253;61613;-76
2022/09/27 03:30:00;;;;;;;9.50;7.30;;;;;;;14.69;100.00;99730.06;106808;1252;59855;-77
2022/09/27 03:32:30;;;;;;;9.20;7.30;;;;;;;14.70;100.00;99726.69;106792;1254;74495;-77
2022/09/27 03:35:45;;;;;;;10.30;7.10;;;;;;;14.73;100.00;99725.40;106771;1253;73112;-77
2022/09/27 03:38:15;;;;;;;11.40;7.60;;;;;;;14.75;100.00;99724.23;107117;1252;69640;-81
2022/09/27 03:40:44;;;;;;;7.10;5.30;;;;;;;14.76;100.00;99716.05;106830;1252;73909;-79
2022/09/27 03:43:13;;;;;;;7.40;4.90;;;;;;;14.74;100.00;99707.63;106936;1253;63445;-78
2022/09/27 03:45:44;;;;;;;6.70;5.20;;;;;;;14.71;100.00;99697.80;106995;1253;61003;-77
2022/09/27 03:48:13;;;;;;;9.80;5.60;;;;;;;14.70;100.00;99687.94;107040;1254;74405;-79
2022/09/27 03:50:42;;;;;;;7.40;5.60;;;;;;;14.68;100.00;99683.43;106853;1254;72975;-78
2022/09/27 03:53:10;;;;;;;8.00;5.20;;;;;;;14.67;100.00;99684.25;106921;1254;71049;-78
2022/09/27 03:55:39;;;;;;;9.30;5.10;;;;;;;14.65;100.00;99686.16;106765;1256;72770;-78
2022/09/27 03:58:08;;;;;;;9.30;5.60;;;;;;;14.65;100.00;99690.96;106772;1254;64029;-77
2022/09/27 04:00:39;;;;;;;7.50;5.30;;;;;;;14.65;100.00;99688.23;106764;1255;62942;-77
2022/09/27 04:03:09;;;;;;;7.80;5.80;;;;;;;14.67;100.00;99683.52;106914;1254;74647;-79
2022/09/27 04:05:50;;;;;;;7.90;5.80;;;;;;;14.67;100.00;99682.11;106983;1254;72493;-80
2022/09/27 04:08:21;;;;;;;11.30;7.60;;;;;;;14.64;100.00;99676.54;107168;1253;70158;-74
2022/09/27 04:10:51;;;;;;;10.80;7.20;;;;;;;14.64;100.00;99676.30;107305;1254;72392;-82
2022/09/27 04:13:20;;;;;;;10.50;6.50;;;;;;;14.61;100.00;99667.85;106877;1254;63345;-81
2022/09/27 04:15:53;;;;;;;9.90;6.90;;;;;;;14.59;100.00;99664.52;107179;1253;61094;-82
2022/09/27 04:18:40;;;;;;;10.60;7.00;;;;;;;14.59;100.00;99669.60;107172;1253;72795;-82
2022/09/27 04:21:08;;;;;;;10.10;5.80;;;;;;;14.59;100.00;99671.21;106938;1253;70729;-83
2022/09/27 04:23:40;;;;;;;8.70;6.10;;;;;;;14.57;100.00;99673.66;107151;1252;68376;-81
2022/09/27 04:26:09;;;;;;;8.40;6.00;;;;;;;14.53;100.00;99678.98;107108;1254;73235;-83
2022/09/27 04:28:50;;;;;;;7.80;6.20;;;;;;;14.49;100.00;99682.05;106929;1254;61054;-85
2022/09/27 04:31:22;;;;;;;9.10;7.00;;;;;;;14.44;100.00;99685.91;106951;1253;58982;-85
2022/09/27 04:37:31;;;;;;;12.40;7.10;;;;;;;14.38;100.00;99687.25;107856;1253;70359;-84
2022/09/27 04:40:04;;;;;;;9.80;6.40;;;;;;;14.37;100.00;99681.02;107784;1253;67812;-79
2022/09/27 04:42:33;;;;;;;11.60;6.80;;;;;;;14.35;100.00;99683.54;107277;1254;72799;-81
2022/09/27 04:45:02;;;;;;;13.00;7.50;;;;;;;14.28;100.00;99685.22;107056;1254;62611;-84
2022/09/27 04:47:32;;;;;;;14.30;11.10;;;;;;;14.29;100.00;99685.73;106992;1254;58936;-83
2022/09/27 04:50:02;;;;;;;11.70;8.30;;;;;;;14.28;100.00;99688.37;107215;1253;75644;-85
2022/09/27 04:52:31;;;;;;;15.60;8.10;;;;;;;14.24;100.00;99680.29;107151;1254;73039;-84
2022/09/27 04:54:59;;;;;;;13.70;8.70;;;;;;;14.30;100.00;99687.86;106977;1254;70374;-85
2022/09/27 04:57:29;;;;;;;11.10;8.60;;;;;;;14.27;100.00;99681.20;107020;1254;72916;-83
2022/09/27 04:59:59;;;;;;;11.80;8.70;;;;;;;14.23;100.00;99674.95;107281;1252;61710;-84
2022/09/27 05:02:29;;;;;;;16.80;10.90;;;;;;;14.17;100.00;99676.21;107170;1254;59619;-84
2022/09/27 05:05:54;;;;;;;13.90;10.60;;;;;;;14.17;100.00;99680.17;106666;1259;74457;-84
2022/09/27 05:08:24;;;;;;;13.70;11.10;;;;;;;14.18;100.00;99682.69;107090;1254;70825;-87
2022/09/27 05:11:13;;;;;;;12.50;10.50;;;;;;;14.18;100.00;99671.82;107149;1254;70989;-85
2022/09/27 05:13:42;;;;;;;13.90;10.30;;;;;;;14.16;100.00;99664.13;107245;1252;71808;-86
2022/09/27 05:16:11;;;;;;;14.50;11.00;;;;;;;14.15;100.00;99663.30;106986;1254;61425;-84
2022/09/27 05:18:56;;;;;;;12.90;10.20;;;;;;;14.20;100.00;99663.92;106944;1254;59440;-82
2022/09/27 05:22:21;;;;;;;15.20;10.90;;;;;;;14.22;100.00;99668.42;107116;1254;72786;-83
2022/09/27 05:24:49;;;;;;;14.20;8.70;;;;;;;14.24;100.00;99669.94;107047;1254;72373;-83
2022/09/27 05:27:19;;;;;;;11.80;8.70;;;;;;;14.27;100.00;99671.05;106935;1254;71154;-87
2022/09/27 05:29:49;;;;;;;11.60;8.10;;;;;;;14.28;100.00;99677.17;107021;1253;72363;-83
2022/09/27 05:32:22;;;;;;;10.10;7.90;;;;;;;14.31;100.00;99674.23;107181;1254;63069;-88
2022/09/27 05:34:59;;;;;;;12.40;8.10;;;;;;;14.42;100.00;99676.16;107044;1254;61191;-84
2022/09/27 05:37:30;;;;;;;10.80;7.60;;;;;;;14.48;100.00;99675.55;107187;1253;75112;-86
2022/09/27 05:39:58;;;;;;;9.90;7.60;;;;;;;14.51;100.00;99676.96;107184;1254;71917;-86
2022/09/27 05:42:44;;;;;;;10.40;7.40;;;;;;;14.60;100.00;99678.46;107246;1254;69183;-80
2022/09/27 05:45:13;;;;;;;12.60;6.80;;;;;;;14.67;100.00;99684.55;106918;1253;72065;-75
2022/09/27 05:47:42;;;;;;;8.60;6.10;;;;;;;14.67;100.00;99689.12;107122;1254;63078;-74
2022/09/27 05:50:11;;;;;;;9.20;6.70;;;;;;;14.70;100.00;99692.45;106997;1254;59512;-79
2022/09/27 05:52:40;;;;;;;9.10;6.50;;;;;;;14.74;100.00;99694.98;107090;1254;74180;-77
2022/09/27 05:55:09;;;;;;;9.10;6.30;;;;;;;14.76;100.00;99700.54;107182;1253;70364;-82
2022/09/27 05:57:38;;;;;;;9.60;6.50;;;;;;;14.80;100.00;99700.66;107239;1253;70657;-79
2022/09/27 06:00:09;;;;;;;8.40;6.80;;;;;;;14.89;100.00;99698.91;106958;1254;72112;-77
2022/09/27 06:02:40;;;;;;;7.10;5.80;;;;;;;14.94;100.00;99699.90;106946;1256;62103;-77
2022/09/27 06:05:33;;;;;;;7.80;6.30;;;;;;;14.90;100.00;99699.77;106921;1254;61053;-79
2022/09/27 06:08:21;;;;;;;9.40;6.60;;;;;;;14.95;100.00;99690.82;106916;1254;75063;-80
2022/09/27 06:11:01;;;;;;;9.80;6.50;;;;;;;15.02;100.00;99690.82;106939;1254;72701;-79
2022/09/27 06:13:32;;;;;;;9.00;6.90;;;;;;;15.08;100.00;99685.97;106839;1257;68408;-77
2022/09/27 06:16:02;;;;;;;10.60;8.40;;;;;;;15.16;100.00;99687.02;106754;1257;74380;-78
2022/09/27 06:18:33;;;;;;;8.10;6.70;;;;;;;15.26;100.00;99686.25;106679;1258;61823;-79
2022/09/27 06:21:04;;;;;;;8.00;7.10;;;;;;;15.39;99.95;99686.11;106636;1259;59975;-80
2022/09/27 06:23:33;;;;;;;8.30;6.60;;;;;;;15.43;98.99;99684.45;106786;1257;71750;-75
2022/09/27 06:26:28;;;;;;;9.30;6.00;;;;;;;15.47;99.11;99689.41;107089;1254;69653;-75
2022/09/27 06:29:14;;;;;;;8.30;7.20;;;;;;;15.57;98.39;99687.63;106935;1256;69194;-77
2022/09/27 06:31:49;;;;;;;7.90;6.40;;;;;;;15.71;97.16;99692.30;106947;1254;71240;-78
2022/09/27 06:34:27;;;;;;;8.60;6.80;;;;;;;15.91;98.24;99692.94;106974;1254;62655;-77
2022/09/27 06:36:56;;;;;;;7.20;5.30;;;;;;;16.04;96.41;99694.40;106942;1254;61063;-78
2022/09/27 06:39:25;;;;;;;7.70;5.10;;;;;;;16.14;94.26;99687.02;107025;1254;72548;-76
2022/09/27 06:42:22;;;;;;;5.20;4.20;;;;;;;16.25;92.32;99682.23;106971;1254;70409;-76
2022/09/27 06:45:05;;;;;;;6.30;4.80;;;;;;;16.36;92.85;99680.52;107034;1254;68776;-80
2022/09/27 06:47:53;;;;;;;11.50;5.40;;;;;;;16.40;92.28;99675.91;107076;1254;75226;-78
2022/09/27 06:50:35;;;;;;;8.10;5.20;;;;;;;16.53;92.48;99675.38;107091;1254;62621;-75
2022/09/27 06:53:07;;;;;;;10.30;5.20;;;;;;;16.61;91.82;99672.86;106998;1256;61103;-76
2022/09/27 06:55:38;;;;;;;8.60;5.70;;;;;;;16.55;90.77;99669.57;106845;1254;65172;-76
2022/09/27 07:01:17;;;;;;;9.40;5.90;;;;;;;16.70;91.66;99666.73;106808;1254;71159;-80
2022/09/27 07:04:45;;;;;;;10.70;6.20;;;;;;;16.83;92.26;99665.66;106320;1260;74633;-78
2022/09/27 07:07:38;;;;;;;10.80;5.60;;;;;;;16.91;92.72;99663.27;106328;1260;63529;-79
2022/09/27 07:10:08;;;;;;;10.90;5.70;;;;;;;16.97;91.71;99661.10;106641;1255;58027;-75
2022/09/27 07:12:38;;;;;;;7.70;4.70;;;;;;;17.01;90.45;99657.79;107013;1254;73455;-78
2022/09/27 07:15:07;;;;;;;11.40;5.10;;;;;;;17.02;89.10;99654.07;106756;1254;72772;-78
2022/09/27 07:17:36;;;;;;;8.20;5.40;;;;;;;17.02;89.63;99651.98;107053;1254;71041;-83
2022/09/27 07:20:05;;;;;;;8.40;5.20;;;;;;;17.12;89.67;99652.43;106985;1254;74284;-79
2022/09/27 07:22:44;;;;;;;8.90;5.30;;;;;;;17.13;88.98;99650.88;107058;1253;64065;-76
2022/09/27 07:25:14;;;;;;;8.70;5.20;;;;;;;17.22;89.60;99656.23;106969;1254;61741;-76
2022/09/27 07:27:43;;;;;;;11.60;5.20;;;;;;;17.37;89.42;99658.29;106947;1254;75069;-75
2022/09/27 07:30:13;;;;;;;12.00;5.00;;;;;;;17.44;88.67;99661.19;106951;1254;72198;-77
2022/09/27 07:32:42;;;;;;;14.00;6.60;;;;;;;17.49;88.94;99666.35;106928;1254;71433;-76
2022/09/27 07:35:14;;;;;;;13.70;5.50;;;;;;;17.53;88.94;99666.98;107096;1254;63200;-74
2022/09/27 07:37:44;;;;;;;;;;;;;;;17.55;87.58;99666.10;106694;1254;61455;-75
2022/09/27 07:40:14;;;;;;;10.00;5.30;;;;;;;17.52;86.67;99667.11;106897;1254;58936;-76
2022/09/27 07:42:44;;;;;;;7.40;4.30;;;;;;;17.65;86.24;99664.67;106859;1254;74830;-76
2022/09/27 07:45:12;;;;;;;12.50;5.50;;;;;;;17.85;86.63;99666.91;106816;1254;70616;-77
2022/09/27 07:48:28;;;;;;;6.40;4.70;;;;;;;18.04;85.95;99662.20;106689;1253;69284;-78
2022/09/27 07:51:24;;;;;;;14.00;5.10;;;;;;;18.21;82.66;99662.41;106808;1254;73667;-76
2022/09/27 07:54:00;;;;;;;10.70;5.60;;;;;;;18.36;81.48;99655.06;106991;1254;59681;-78
2022/09/27 07:56:35;;;;;;;19.40;6.20;;;;;;;18.27;81.22;99649.15;106973;1254;61381;-80
2022/09/27 07:59:06;;;;;;;8.50;5.70;;;;;;;18.36;82.42;99654.20;106929;1254;75129;-77
2022/09/27 08:01:34;;;;;;;14.40;6.80;;;;;;;18.48;81.01;99658.59;106933;1254;72095;-79
2022/09/27 08:04:04;;;;;;;7.60;5.30;;;;;;;18.70;81.01;99652.98;106874;1254;60663;-79
2022/09/27 08:06:33;;;;;;;11.30;6.50;;;;;;;18.95;81.45;99650.18;107022;1254;63341;-73
2022/09/27 08:09:08;;;;;;;12.10;5.90;;;;;;;19.08;78.92;99652.23;106810;1254;60679;-77
2022/09/27 08:11:39;;;;;;;10.00;5.60;;;;;;;19.15;77.86;99651.31;106916;1254;60896;-78
2022/09/27 08:14:09;;;;;;;8.70;5.30;;;;;;;19.27;77.68;99656.94;106950;1253;63498;-73
2022/09/27 08:16:40;;;;;;;7.30;4.40;;;;;;;19.32;75.20;99653.19;106660;1254;72252;-81
2022/09/27 08:19:28;;;;;;;7.10;3.80;;;;;;;19.40;73.71;99643.63;106868;1254;71003;-80
2022/09/27 08:22:08;;;;;;;5.50;4.20;;;;;;;19.51;74.54;99640.12;106883;1254;73665;-75
2022/09/27 08:24:59;;;;;;;8.10;5.10;;;;;;;19.50;73.54;99640.92;106884;1252;61044;-79
2022/09/27 08:27:41;;;;;;;6.50;4.80;;;;;;;19.61;75.21;99636.54;106994;1252;61797;-78
2022/09/27 08:30:21;;;;;;;7.20;5.30;;;;;;;19.63;74.61;99631.70;106877;1254;72919;-78
2022/09/27 08:32:55;;;;;;;5.80;4.70;;;;;;;19.59;73.79;99629.42;107063;1254;61025;-77
2022/09/27 08:35:27;;;;;;;14.00;6.20;;;;;;;19.64;74.46;99622.55;106955;1254;68780;-77
2022/09/27 08:37:59;;;;;;;10.00;5.40;;;;;;;19.34;73.78;99618.58;106995;1254;74328;-77
2022/09/27 08:40:53;;;;;;;9.90;5.50;;;;;;;19.32;74.26;99615.64;106978;1253;60771;-76
2022/09/27 08:43:37;;;;;;;8.30;4.70;;;;;;;19.42;73.74;99607.91;106985;1253;58547;-78
2022/09/27 08:46:18;;;;;;;8.90;5.90;;;;;;;19.44;74.45;99606.30;107061;1254;63081;-74
2022/09/27 08:48:57;;;;;;;9.20;4.90;;;;;;;19.49;73.43;99610.52;107033;1254;71469;-77
2022/09/27 08:51:30;;;;;;;7.20;5.20;;;;;;;19.41;73.23;99609.13;106952;1254;59819;-80
2022/09/27 08:54:28;;;;;;;7.10;4.60;;;;;;;19.44;72.76;99607.27;106879;1254;62715;-78
2022/09/27 08:57:10;;;;;;;6.90;4.80;;;;;;;19.49;73.78;99611.52;107117;1254;59562;-79
2022/09/27 09:00:00;;;;;;;9.10;5.00;;;;;;;19.65;73.86;99620.66;106925;1254;60588;-85
2022/09/27 09:02:30;;;;;;;7.00;4.80;;;;;;;19.77;72.73;99624.48;107021;1254;74827;-77
2022/09/27 09:05:14;;;;;;;9.80;4.70;;;;;;;19.90;72.23;99622.30;107082;1254;63471;-76
2022/09/27 09:08:14;;;;;;;9.10;4.90;;;;;;;20.07;69.87;99619.75;106588;1254;450447;-82
2022/09/27 09:14:15;;;;;;;11.40;6.70;;;;;;;20.23;71.38;99619.75;107099;1254;63079;-78
2022/09/27 09:17:35;;;;;;;8.30;4.10;;;;;;;20.42;71.00;99614.63;106997;1254;59605;-78
2022/09/27 09:21:02;;;;;;;7.30;4.70;;;;;;;20.44;67.03;99606.04;106616;1257;74733;-78
2022/09/27 09:24:07;;;;;;;14.10;5.60;;;;;;;20.79;67.95;99598.44;107014;1254;62123;-79
2022/09/27 09:26:59;;;;;;;7.60;5.00;;;;;;;21.07;68.12;99587.94;106904;1254;71552;-77
2022/09/27 09:30:01;;;;;;;6.10;5.20;;;;;;;21.14;67.40;99578.40;107046;1254;74300;-78
2022/09/27 09:32:50;;;;;;;13.20;5.20;;;;;;;21.31;66.74;99581.38;106902;1254;58937;-77
2022/09/27 09:35:39;;;;;;;12.80;6.00;;;;;;;21.59;65.96;99572.70;107174;1254;59436;-79
2022/09/27 09:38:28;;;;;;;9.90;5.40;;;;;;;21.77;64.63;99566.16;107202;1253;74589;-75
2022/09/27 09:41:21;;;;;;;5.90;3.80;;;;;;;21.95;63.81;99561.58;107079;1254;62112;-78
2022/09/27 09:44:13;;;;;;;7.40;4.10;;;;;;;22.26;63.70;99560.53;107133;1254;71105;-67
2022/09/27 09:46:49;;;;;;;6.80;3.70;;;;;;;22.47;62.21;99555.52;107086;1252;63916;-74
2022/09/27 09:49:45;;;;;;;7.80;3.70;;;;;;;22.70;61.42;99554.23;107075;1253;58448;-76
2022/09/27 09:52:19;;;;;;;6.50;3.40;;;;;;;22.91;59.95;99559.73;107162;1252;59281;-72
2022/09/27 09:55:02;;;;;;;6.80;3.20;;;;;;;23.13;58.31;99558.37;107085;1254;64206;-75
2022/09/27 09:57:55;;;;;;;9.60;3.40;;;;;;;22.95;57.98;99561.12;107059;1254;61731;-76
2022/09/27 10:00:26;;;;;;;5.00;3.40;;;;;;;22.68;58.53;99560.59;106939;1254;59285;-79
2022/09/27 10:02:59;;;;;;;10.20;3.60;;;;;;;22.67;58.09;99552.38;106891;1252;63366;-76
2022/09/27 10:05:28;;;;;;;8.70;3.40;;;;;;;22.36;58.56;99556.85;106870;1254;60612;-76
2022/09/27 10:08:03;;;;;;;;;;;;;;;22.07;58.95;99561.14;106880;1254;59411;-74
2022/09/27 10:10:33;;;;;;;5.20;3.50;;;;;;;21.86;59.54;99559.66;106776;1255;63115;-75
2022/09/27 10:13:21;;;;;;;5.90;3.30;;;;;;;21.41;60.74;99559.66;106934;1254;72359;-76
2022/09/27 10:16:11;;;;;;;8.80;4.10;;;;;;;21.38;60.86;99554.69;107206;1252;70776;-75
2022/09/27 10:18:41;;;;;;;6.50;3.50;;;;;;;21.56;60.91;99555.58;107056;1254;63934;-74
2022/09/27 10:21:27;;;;;;;11.60;4.50;;;;;;;21.67;60.64;99556.60;107074;1254;59630;-80
2022/09/27 10:24:14;;;;;;;6.20;3.90;;;;;;;21.84;60.27;99552.92;106984;1254;60360;-82
2022/09/27 10:27:07;;;;;;;6.20;3.60;;;;;;;21.97;59.59;99552.36;107066;1254;63628;-80
2022/09/27 10:29:38;;;;;;;6.30;3.50;;;;;;;21.78;60.24;99547.63;107036;1253;72286;-83
2022/09/27 10:32:35;;;;;;;7.30;4.00;;;;;;;21.67;60.08;99543.42;106956;1254;60557;-86
2022/09/27 10:35:42;;;;;;;11.90;4.20;;;;;;;21.67;59.72;99541.71;107014;1254;65018;-77
2022/09/27 10:38:38;;;;;;;6.30;3.50;;;;;;;21.77;59.97;99535.91;107046;1254;61193;-82
2022/09/27 10:41:30;;;;;;;6.60;3.10;;;;;;;21.90;58.72;99531.80;107079;1252;59585;-74
2022/09/27 10:44:19;;;;;;;4.60;2.50;;;;;;;22.20;57.36;99532.92;107073;1251;64589;-72
2022/09/27 10:47:25;;;;;;;4.30;2.80;;;;;;;22.83;56.37;99528.35;107057;1253;60947;-73
2022/09/27 10:50:20;;;;;;;7.50;3.40;;;;;;;23.20;54.23;99528.79;107051;1252;70990;-75
2022/09/27 10:53:26;;;;;;;6.60;2.80;;;;;;;23.44;54.21;99529.27;106957;1254;74386;-76
2022/09/27 10:56:00;;;;;;;5.00;2.20;;;;;;;24.32;52.30;99525.52;107023;1253;61118;-77
2022/09/27 10:58:35;;;;;;;3.60;2.10;;;;;;;24.94;49.38;99516.02;106852;1254;62031;-76
2022/09/27 11:01:11;;;;;;;3.90;1.50;;;;;;;25.23;48.96;99523.01;107017;1254;63529;-75
2022/09/27 11:04:03;;;;;;;3.30;1.90;;;;;;;25.50;48.18;99517.69;106899;1254;61034;-75
2022/09/27 11:06:37;;;;;;;7.90;3.50;;;;;;;25.32;47.51;99513.83;107136;1252;60965;-79
2022/09/27 11:09:25;;;;;;;4.30;2.50;;;;;;;25.02;48.47;99511.05;107199;1253;62434;-70
2022/09/27 11:12:12;;;;;;;4.80;2.40;;;;;;;25.89;47.94;99510.23;107138;1252;59593;-73
2022/09/27 11:14:50;;;;;;;7.30;2.00;;;;;;;25.42;48.23;99512.81;106822;1252;59515;-73
2022/09/27 11:17:34;;;;;;;3.70;1.70;;;;;;;25.79;46.83;99508.95;106836;1254;64441;-74
2022/09/27 11:20:34;;;;;;;2.80;1.60;;;;;;;26.02;45.62;99512.01;106789;1252;72267;-73
2022/09/27 11:23:26;;;;;;;3.10;1.70;;;;;;;25.35;45.96;99513.67;106943;1253;71338;-75
2022/09/27 11:26:09;;;;;;;3.50;1.80;;;;;;;24.85;47.20;99512.25;106907;1254;63577;-73
2022/09/27 11:29:19;;;;;;;2.00;1.60;;;;;;;24.54;48.05;99506.80;106856;1254;59166;-74
2022/09/27 11:32:45;;;;;;;2.30;1.60;;;;;;;24.07;48.75;99506.31;106730;1252;61421;-70
2022/09/27 11:35:32;;;;;;;2.50;1.80;;;;;;;23.81;49.93;99507.49;106956;1252;75445;-67
2022/09/27 11:38:19;;;;;;;2.70;1.70;;;;;;;23.80;50.42;99504.23;107137;1253;62645;-73
2022/09/27 11:41:52;;;;;;;2.50;1.80;;;;;;;24.07;50.39;99507.27;106981;1253;70721;-71
2022/09/27 11:45:01;;;;;;;3.50;2.00;;;;;;;24.34;49.81;99505.62;106974;1253;74818;-73
2022/09/27 11:48:08;;;;;;;3.80;2.00;;;;;;;23.50;50.84;99503.59;107005;1252;60646;-72
2022/09/27 11:50:50;;;;;;;3.80;2.40;;;;;;;23.53;51.62;99498.97;107011;1254;62272;-77
2022/09/27 11:53:42;;;;;;;3.70;2.40;;;;;;;23.70;51.86;99501.05;107034;1254;63565;-71
2022/09/27 11:56:30;;;;;;;3.60;1.80;;;;;;;24.35;49.43;99496.95;107016;1253;60943;-76
2022/09/27 11:59:21;;;;;;;4.00;2.00;;;;;;;24.86;49.47;99491.45;106946;1253;70649;-75
2022/09/27 12:02:19;;;;;;;3.60;1.90;;;;;;;25.47;47.87;99494.16;107082;1252;75292;-77
2022/09/27 12:05:13;;;;;;;5.20;1.70;;;;;;;25.24;47.59;99494.09;107081;1252;59612;-78
2022/09/27 12:08:12;;;;;;;2.50;1.70;;;;;;;25.93;44.33;99489.32;107067;1252;60521;-78
2022/09/27 12:10:48;;;;;;;4.20;1.70;;;;;;;25.46;45.28;99489.88;107001;1254;64332;-75
2022/09/27 12:13:42;;;;;;;4.30;1.90;;;;;;;25.17;46.24;99488.94;107092;1254;71309;-76
2022/09/27 12:16:14;;;;;;;5.70;2.00;;;;;;;25.49;45.54;99491.03;106835;1254;60109;-80
2022/09/27 12:18:46;;;;;;;3.40;1.70;;;;;;;25.55;45.48;99492.38;106953;1254;63336;-76
2022/09/27 12:21:47;;;;;;;5.90;2.40;;;;;;;25.31;45.74;99486.71;107092;1254;59607;-79
2022/09/27 12:24:23;;;;;;;11.30;3.20;;;;;;;24.78;46.37;99478.31;107086;1253;59069;-77
2022/09/27 12:27:20;;;;;;;4.40;2.20;;;;;;;24.79;47.18;99471.06;107228;1252;74869;-74
2022/09/27 12:29:50;;;;;;;7.20;2.20;;;;;;;24.42;47.89;99470.98;107098;1254;61307;-72
2022/09/27 12:32:43;;;;;;;13.00;3.10;;;;;;;24.74;47.67;99470.37;106999;1253;70746;-71
2022/09/27 12:35:30;;;;;;;8.30;2.70;;;;;;;25.06;47.23;99464.70;107031;1254;64350;-75
2022/09/27 12:38:13;;;;;;;6.20;1.90;;;;;;;25.60;45.58;99462.48;106849;1255;59125;-77